Time;durP1;ratioP1;P1;durP2;ratioP2;P2;SDS_P1;SDS_P2;PMS_P1;PMS_P2;Temp;Humidity;BMP_temperature;BMP_pressure;BME280_temperature;BME280_humidity;BME280_pressure;Samples;Min_cycle;Max_cycle;Signal;HPM_P1;HPM_P2
2023/12/30 08:29:17;;;;;;;2.67;2.47;;;;;;;;;;5425116;23;20090;-67
2023/12/30 08:31:45;;;;;;;2.78;2.50;;;;;;;;;;4934665;29;20043;-68
2023/12/30 08:34:15;;;;;;;7.47;2.70;;;;;;;;;;4933064;29;20034;-67
2023/12/30 08:36:40;;;;;;;3.30;2.88;;;;;;;;;;4933838;29;20055;-68
2023/12/30 08:39:06;;;;;;;2.67;2.47;;;;;;;;;;4933406;29;20043;-69
2023/12/30 08:41:33;;;;;;;3.00;2.70;;;;;;;;;;4933473;29;20047;-67
2023/12/30 08:44:02;;;;;;;3.60;3.05;;;;;;;;;;4915417;29;20496;-66
2023/12/30 08:46:28;;;;;;;3.35;2.78;;;;;;;;;;4933928;29;20027;-67
2023/12/30 08:48:54;;;;;;;3.83;2.75;;;;;;;;;;4934828;29;20063;-68
2023/12/30 08:51:19;;;;;;;3.10;2.78;;;;;;;;;;4933645;29;20028;-68
2023/12/30 08:53:45;;;;;;;3.08;2.75;;;;;;;;;;4934608;29;20023;-67
2023/12/30 08:56:11;;;;;;;2.90;2.60;;;;;;;;;;4928724;29;20023;-67
2023/12/30 08:58:37;;;;;;;3.60;2.85;;;;;;;;;;4935816;29;20024;-67
2023/12/30 09:01:02;;;;;;;2.75;2.53;;;;;;;;;;4935814;29;20539;-67
2023/12/30 09:03:28;;;;;;;3.00;2.70;;;;;;;;;;4935777;29;20031;-67
2023/12/30 09:05:53;;;;;;;2.95;2.72;;;;;;;;;;4934928;29;20067;-68
2023/12/30 09:08:19;;;;;;;3.35;2.75;;;;;;;;;;4934516;29;20051;-68
2023/12/30 09:10:45;;;;;;;3.13;2.83;;;;;;;;;;4934953;29;20023;-67
2023/12/30 09:13:11;;;;;;;2.65;2.45;;;;;;;;;;4934500;29;20072;-69
2023/12/30 09:15:37;;;;;;;2.88;2.60;;;;;;;;;;4934559;29;20488;-67
2023/12/30 09:18:03;;;;;;;3.33;2.78;;;;;;;;;;4931746;29;20024;-68
2023/12/30 09:20:28;;;;;;;3.13;2.75;;;;;;;;;;4934311;29;20039;-68
2023/12/30 09:22:54;;;;;;;2.88;2.53;;;;;;;;;;4933736;29;20028;-68
2023/12/30 09:25:19;;;;;;;2.72;2.50;;;;;;;;;;4934357;29;20028;-69
2023/12/30 09:27:45;;;;;;;2.58;2.35;;;;;;;;;;4933020;29;20035;-68
2023/12/30 09:30:11;;;;;;;3.17;2.67;;;;;;;;;;4913184;29;20052;-68
2023/12/30 09:32:37;;;;;;;3.60;2.70;;;;;;;;;;4934471;29;20016;-68
2023/12/30 09:35:03;;;;;;;2.67;2.47;;;;;;;;;;4932887;29;20024;-68
2023/12/30 09:37:28;;;;;;;4.20;2.80;;;;;;;;;;4934554;29;20085;-67
2023/12/30 09:39:54;;;;;;;3.65;2.80;;;;;;;;;;4935226;29;20091;-69
2023/12/30 09:42:20;;;;;;;2.78;2.50;;;;;;;;;;4935309;29;20067;-68
2023/12/30 09:44:47;;;;;;;2.60;2.40;;;;;;;;;;4933923;29;20031;-63
2023/12/30 09:47:13;;;;;;;3.25;2.58;;;;;;;;;;4934004;29;20034;-68
2023/12/30 09:49:41;;;;;;;2.95;2.63;;;;;;;;;;4930554;29;20028;-69
2023/12/30 09:52:06;;;;;;;4.00;3.00;;;;;;;;;;4930642;29;20031;-68
2023/12/30 09:54:33;;;;;;;3.03;2.70;;;;;;;;;;4929156;29;20086;-67
2023/12/30 09:57:00;;;;;;;2.63;2.28;;;;;;;;;;4928455;29;20063;-68
2023/12/30 09:59:26;;;;;;;3.13;2.70;;;;;;;;;;4933266;29;20090;-67
2023/12/30 10:01:54;;;;;;;3.20;2.72;;;;;;;;;;4917889;29;20616;-68
2023/12/30 10:04:20;;;;;;;4.43;3.15;;;;;;;;;;4934756;29;20044;-68
2023/12/30 10:06:47;;;;;;;4.03;2.80;;;;;;;;;;4935301;29;20034;-69
2023/12/30 10:09:14;;;;;;;6.03;3.03;;;;;;;;;;4933958;29;20035;-69
2023/12/30 10:11:42;;;;;;;4.50;2.83;;;;;;;;;;4933480;29;20028;-69
2023/12/30 10:14:08;;;;;;;2.95;2.65;;;;;;;;;;4933126;29;20400;-68
2023/12/30 10:16:35;;;;;;;2.90;2.60;;;;;;;;;;4932324;29;20024;-68
2023/12/30 10:19:01;;;;;;;4.80;2.63;;;;;;;;;;4916131;29;20040;-68
2023/12/30 10:21:28;;;;;;;2.58;2.38;;;;;;;;;;4934397;29;20388;-69
2023/12/30 10:23:54;;;;;;;3.10;2.58;;;;;;;;;;4934737;29;20019;-69
2023/12/30 10:26:21;;;;;;;3.97;3.00;;;;;;;;;;4934954;29;20036;-68
2023/12/30 10:28:47;;;;;;;3.30;2.90;;;;;;;;;;4934520;29;20040;-68
2023/12/30 10:31:16;;;;;;;3.30;3.00;;;;;;;;;;4934899;29;20031;-68
2023/12/30 10:33:42;;;;;;;2.77;2.50;;;;;;;;;;4935766;29;20038;-68
2023/12/30 10:36:08;;;;;;;2.92;2.60;;;;;;;;;;4938335;29;20028;-68
2023/12/30 10:38:36;;;;;;;2.78;2.53;;;;;;;;;;4938401;29;20043;-67
2023/12/30 10:41:01;;;;;;;5.90;2.95;;;;;;;;;;4938891;29;20028;-68
2023/12/30 10:43:27;;;;;;;4.10;2.88;;;;;;;;;;4938370;29;20103;-67
2023/12/30 10:45:58;;;;;;;2.78;2.47;;;;;;;;;;4938215;29;20038;-68
2023/12/30 10:48:31;;;;;;;3.80;2.75;;;;;;;;;;4938103;29;20544;-68
2023/12/30 10:50:58;;;;;;;5.07;2.88;;;;;;;;;;4938427;29;20035;-68
2023/12/30 10:53:31;;;;;;;3.03;2.50;;;;;;;;;;4938123;29;20024;-69
2023/12/30 10:56:03;;;;;;;4.70;2.70;;;;;;;;;;4938117;29;20469;-69
2023/12/30 10:58:36;;;;;;;3.85;2.90;;;;;;;;;;4938482;29;20159;-69
2023/12/30 11:01:05;;;;;;;2.95;2.65;;;;;;;;;;4937831;29;20023;-69
2023/12/30 11:03:32;;;;;;;2.90;2.60;;;;;;;;;;4938259;29;20176;-69
2023/12/30 11:06:12;;;;;;;4.43;2.78;;;;;;;;;;4937752;29;20361;-71
2023/12/30 11:08:41;;;;;;;;;;;;;;;;;;4938203;29;20035;-69
2023/12/30 11:11:07;;;;;;;4.90;2.70;;;;;;;;;;4937791;29;19915;-70
2023/12/30 11:13:43;;;;;;;3.60;3.30;;;;;;;;;;4936305;29;20024;-69
2023/12/30 11:16:16;;;;;;;3.00;2.72;;;;;;;;;;4936691;29;20031;-69
2023/12/30 11:18:51;;;;;;;4.68;2.58;;;;;;;;;;4936733;29;20035;-69
2023/12/30 11:21:56;;;;;;;3.13;2.60;;;;;;;;;;4937092;29;20059;-69
2023/12/30 11:24:22;;;;;;;3.13;2.40;;;;;;;;;;4859393;29;20040;-69
2023/12/30 11:26:48;;;;;;;3.78;2.55;;;;;;;;;;4859614;29;20032;-69
2023/12/30 11:29:17;;;;;;;3.25;2.65;;;;;;;;;;4896517;29;20429;-69
2023/12/30 11:31:46;;;;;;;3.60;2.85;;;;;;;;;;4937497;29;20027;-69
2023/12/30 11:34:13;;;;;;;4.13;2.90;;;;;;;;;;4937667;29;20027;-69
2023/12/30 11:36:39;;;;;;;2.97;2.60;;;;;;;;;;4937453;29;20058;-69
2023/12/30 11:39:07;;;;;;;4.20;2.60;;;;;;;;;;4937214;29;20023;-68
2023/12/30 11:41:33;;;;;;;4.82;2.92;;;;;;;;;;4937576;29;20119;-68
2023/12/30 11:44:02;;;;;;;2.70;2.50;;;;;;;;;;4937303;29;20028;-68
2023/12/30 11:46:28;;;;;;;3.45;2.80;;;;;;;;;;4919615;29;20028;-68
2023/12/30 11:48:55;;;;;;;3.28;2.80;;;;;;;;;;4937112;29;20106;-68
2023/12/30 11:51:22;;;;;;;2.58;2.38;;;;;;;;;;4937372;29;20490;-68
2023/12/30 11:53:48;;;;;;;3.67;2.60;;;;;;;;;;4937093;29;20070;-68
2023/12/30 11:56:15;;;;;;;5.85;2.72;;;;;;;;;;4936268;29;20024;-68
2023/12/30 11:58:41;;;;;;;3.03;2.72;;;;;;;;;;4937122;29;20039;-68
2023/12/30 12:01:07;;;;;;;3.42;2.58;;;;;;;;;;4936991;29;20110;-68
2023/12/30 12:03:33;;;;;;;2.78;2.53;;;;;;;;;;4937108;29;20062;-68
2023/12/30 12:05:59;;;;;;;3.92;2.53;;;;;;;;;;4936770;29;20027;-68
2023/12/30 12:08:24;;;;;;;3.13;2.80;;;;;;;;;;4936784;29;20027;-68
2023/12/30 12:10:50;;;;;;;4.32;2.75;;;;;;;;;;4936733;29;20476;-68
2023/12/30 12:13:26;;;;;;;3.17;2.70;;;;;;;;;;4936754;29;20157;-68
2023/12/30 12:15:53;;;;;;;2.60;2.40;;;;;;;;;;4936692;29;20024;-68
2023/12/30 12:18:22;;;;;;;2.67;2.47;;;;;;;;;;4936557;29;20031;-68
2023/12/30 12:20:49;;;;;;;2.90;2.43;;;;;;;;;;4936656;29;20028;-68
2023/12/30 12:23:16;;;;;;;2.80;2.55;;;;;;;;;;4936576;29;20401;-68
2023/12/30 12:25:43;;;;;;;4.10;2.88;;;;;;;;;;4936414;29;20370;-69
2023/12/30 12:28:11;;;;;;;3.22;2.60;;;;;;;;;;4936201;29;20056;-69
2023/12/30 12:30:37;;;;;;;3.05;2.70;;;;;;;;;;4936365;29;20024;-69
2023/12/30 12:33:02;;;;;;;3.78;2.90;;;;;;;;;;4936321;29;20035;-69
2023/12/30 12:35:30;;;;;;;2.95;2.60;;;;;;;;;;4936285;29;20491;-69
2023/12/30 12:37:55;;;;;;;3.47;2.80;;;;;;;;;;4936316;29;20028;-69
2023/12/30 12:40:21;;;;;;;2.88;2.58;;;;;;;;;;4936085;29;20038;-69
2023/12/30 12:42:46;;;;;;;3.03;2.60;;;;;;;;;;4936220;29;20072;-69
2023/12/30 12:45:12;;;;;;;2.67;2.47;;;;;;;;;;4936153;29;20468;-69
2023/12/30 12:47:38;;;;;;;3.15;2.58;;;;;;;;;;4936313;29;20024;-69
2023/12/30 12:50:04;;;;;;;2.50;2.30;;;;;;;;;;4935989;29;20461;-69
2023/12/30 12:52:30;;;;;;;3.63;2.72;;;;;;;;;;4936007;29;20036;-69
2023/12/30 12:54:57;;;;;;;2.58;2.38;;;;;;;;;;4935883;29;20090;-69
2023/12/30 12:57:23;;;;;;;4.18;2.47;;;;;;;;;;4936069;29;20103;-69
2023/12/30 12:59:49;;;;;;;3.28;2.70;;;;;;;;;;4936094;29;20473;-69
2023/12/30 13:02:14;;;;;;;3.53;2.55;;;;;;;;;;4935867;29;20063;-69
2023/12/30 13:04:41;;;;;;;2.67;2.30;;;;;;;;;;4935805;29;20023;-69
2023/12/30 13:07:06;;;;;;;3.00;2.55;;;;;;;;;;4935977;29;20391;-70
2023/12/30 13:09:38;;;;;;;2.83;2.53;;;;;;;;;;4935705;29;20114;-69
2023/12/30 13:12:05;;;;;;;2.58;2.28;;;;;;;;;;4935735;29;20031;-69
2023/12/30 13:14:33;;;;;;;3.70;2.50;;;;;;;;;;4935581;29;20432;-69
2023/12/30 13:17:00;;;;;;;2.85;2.50;;;;;;;;;;4935645;29;20039;-69
2023/12/30 13:19:26;;;;;;;2.58;2.30;;;;;;;;;;4935484;29;20099;-69
2023/12/30 13:21:53;;;;;;;2.65;2.25;;;;;;;;;;4935552;29;20055;-69
2023/12/30 13:24:19;;;;;;;2.88;2.65;;;;;;;;;;4935767;29;20055;-69
2023/12/30 13:26:44;;;;;;;2.35;2.15;;;;;;;;;;4935785;29;20489;-69
2023/12/30 13:29:14;;;;;;;3.58;2.40;;;;;;;;;;4935343;29;20051;-69
2023/12/30 13:31:43;;;;;;;;;;;;;;;;;;4935863;29;20028;-69
2023/12/30 13:34:09;;;;;;;5.13;2.50;;;;;;;;;;4935371;29;20383;-69
2023/12/30 13:36:35;;;;;;;3.67;2.88;;;;;;;;;;4935437;29;20083;-69
2023/12/30 13:39:07;;;;;;;5.82;2.50;;;;;;;;;;4935234;29;20023;-69
2023/12/30 13:41:36;;;;;;;2.70;2.50;;;;;;;;;;4935351;29;20034;-69
2023/12/30 13:44:05;;;;;;;3.63;2.65;;;;;;;;;;4935275;29;20028;-69
2023/12/30 13:51:36;;;;;;;2.85;2.58;;;;;;;;;;4935494;29;20487;-69
2023/12/30 13:54:02;;;;;;;4.78;2.63;;;;;;;;;;4935184;29;20035;-69
2023/12/30 13:56:29;;;;;;;2.90;2.63;;;;;;;;;;4935143;29;20555;-69
2023/12/30 13:58:57;;;;;;;2.55;2.33;;;;;;;;;;4935099;29;20032;-69
2023/12/30 14:01:24;;;;;;;2.92;2.50;;;;;;;;;;4935725;29;20487;-69
2023/12/30 14:03:55;;;;;;;3.83;2.50;;;;;;;;;;4935366;29;20032;-69
2023/12/30 14:06:29;;;;;;;2.70;2.50;;;;;;;;;;4935413;29;20027;-69
2023/12/30 14:08:54;;;;;;;3.00;2.53;;;;;;;;;;4935367;29;20032;-69
2023/12/30 14:11:45;;;;;;;2.58;2.38;;;;;;;;;;4939209;29;20071;-69
2023/12/30 14:14:11;;;;;;;3.20;2.40;;;;;;;;;;4938871;29;20055;-68
2023/12/30 14:16:39;;;;;;;2.40;2.20;;;;;;;;;;4938867;29;20032;-69
2023/12/30 14:19:04;;;;;;;2.58;2.33;;;;;;;;;;4938695;29;20440;-69
2023/12/30 14:21:31;;;;;;;3.17;2.50;;;;;;;;;;4938739;29;20115;-68
2023/12/30 14:23:57;;;;;;;3.65;2.60;;;;;;;;;;4938695;29;20104;-68
2023/12/30 14:26:22;;;;;;;2.92;2.63;;;;;;;;;;4938619;29;20114;-68
2023/12/30 14:28:48;;;;;;;2.67;2.45;;;;;;;;;;4938455;29;20118;-68
2023/12/30 14:31:15;;;;;;;2.67;2.47;;;;;;;;;;4938647;29;20020;-68
2023/12/30 14:33:42;;;;;;;2.95;2.65;;;;;;;;;;4938781;29;20023;-68
2023/12/30 14:36:08;;;;;;;2.95;2.67;;;;;;;;;;4938420;29;20042;-68
2023/12/30 14:38:33;;;;;;;2.33;2.13;;;;;;;;;;4938449;29;20027;-67
2023/12/30 14:40:59;;;;;;;3.10;2.80;;;;;;;;;;4938428;29;20023;-68
2023/12/30 14:43:24;;;;;;;2.80;2.33;;;;;;;;;;4938650;29;20480;-67
2023/12/30 14:45:51;;;;;;;5.28;2.60;;;;;;;;;;4938556;29;20392;-68
2023/12/30 14:48:17;;;;;;;2.70;2.50;;;;;;;;;;4938285;29;20505;-67
2023/12/30 14:50:43;;;;;;;2.97;2.60;;;;;;;;;;4938271;29;20087;-67
2023/12/30 14:53:08;;;;;;;3.10;2.70;;;;;;;;;;4938411;29;20468;-68
2023/12/30 14:55:34;;;;;;;3.35;2.55;;;;;;;;;;4938142;29;20032;-68
2023/12/30 14:58:00;;;;;;;2.53;2.33;;;;;;;;;;4938169;29;20031;-67
2023/12/30 15:00:25;;;;;;;2.90;2.35;;;;;;;;;;4937896;29;20445;-68
2023/12/30 15:02:52;;;;;;;2.50;2.30;;;;;;;;;;4938278;29;20028;-68
2023/12/30 15:05:21;;;;;;;2.65;2.30;;;;;;;;;;4937970;29;20082;-68
2023/12/30 15:07:48;;;;;;;2.90;2.33;;;;;;;;;;4937967;29;20492;-67
2023/12/30 15:10:15;;;;;;;3.55;2.53;;;;;;;;;;4939112;29;20095;-68
2023/12/30 15:12:43;;;;;;;7.22;2.80;;;;;;;;;;4937760;29;20026;-69
2023/12/30 15:15:10;;;;;;;3.00;2.70;;;;;;;;;;4921709;29;20119;-68
2023/12/30 15:17:35;;;;;;;2.63;2.42;;;;;;;;;;4930392;29;20458;-68
2023/12/30 15:20:01;;;;;;;4.85;2.88;;;;;;;;;;4930494;29;20119;-67
2023/12/30 15:22:28;;;;;;;3.28;2.97;;;;;;;;;;4925510;29;20469;-68
2023/12/30 15:24:54;;;;;;;3.10;2.80;;;;;;;;;;4927990;29;20020;-69
2023/12/30 15:27:20;;;;;;;4.45;2.85;;;;;;;;;;4918865;29;20036;-68
2023/12/30 15:29:47;;;;;;;4.53;3.10;;;;;;;;;;4918257;29;20088;-68
2023/12/30 15:32:13;;;;;;;3.20;2.70;;;;;;;;;;4918955;29;20380;-67
2023/12/30 15:34:38;;;;;;;4.50;2.60;;;;;;;;;;4918359;29;20163;-70
2023/12/30 15:37:04;;;;;;;2.70;2.50;;;;;;;;;;4918320;29;20055;-68
2023/12/30 15:39:30;;;;;;;5.53;2.90;;;;;;;;;;4918161;29;20047;-67
2023/12/30 15:41:56;;;;;;;3.53;2.90;;;;;;;;;;4920948;29;20036;-67
2023/12/30 15:44:22;;;;;;;3.97;3.20;;;;;;;;;;4918114;29;20020;-71
2023/12/30 15:46:49;;;;;;;2.65;2.45;;;;;;;;;;4918248;29;20036;-67
2023/12/30 15:49:15;;;;;;;7.53;2.78;;;;;;;;;;4918117;29;20020;-67
2023/12/30 15:51:40;;;;;;;3.13;2.80;;;;;;;;;;4918099;29;20028;-67
2023/12/30 15:54:06;;;;;;;4.65;2.92;;;;;;;;;;4918335;29;20466;-67
2023/12/30 15:56:32;;;;;;;3.78;3.03;;;;;;;;;;4901061;29;20028;-67
2023/12/30 15:58:58;;;;;;;3.15;2.45;;;;;;;;;;4918222;29;20028;-67
2023/12/30 16:01:24;;;;;;;6.80;3.13;;;;;;;;;;4918201;29;20032;-68
2023/12/30 16:03:50;;;;;;;4.38;3.03;;;;;;;;;;4917919;29;20028;-67
2023/12/30 16:06:16;;;;;;;5.00;3.30;;;;;;;;;;4918145;29;20039;-68
2023/12/30 16:08:42;;;;;;;3.88;3.05;;;;;;;;;;4917893;29;20028;-67
2023/12/30 16:11:07;;;;;;;5.60;3.03;;;;;;;;;;4917786;29;20507;-67
2023/12/30 16:13:33;;;;;;;3.88;3.05;;;;;;;;;;4917763;29;20056;-67
2023/12/30 16:16:00;;;;;;;3.78;3.03;;;;;;;;;;4917770;29;20107;-68
2023/12/30 16:18:29;;;;;;;4.88;2.80;;;;;;;;;;4919877;29;20711;-67
2023/12/30 16:20:55;;;;;;;3.60;2.70;;;;;;;;;;4935218;29;20436;-69
2023/12/30 16:23:20;;;;;;;6.28;2.90;;;;;;;;;;4936415;29;20028;-68
2023/12/30 16:25:46;;;;;;;3.60;2.65;;;;;;;;;;4936155;29;20023;-67
2023/12/30 16:28:12;;;;;;;4.78;2.83;;;;;;;;;;4936206;29;20238;-68
2023/12/30 16:30:37;;;;;;;3.00;2.70;;;;;;;;;;4936392;29;20028;-68
2023/12/30 16:33:03;;;;;;;4.45;2.63;;;;;;;;;;4934318;29;20106;-67
2023/12/30 16:35:28;;;;;;;3.28;2.75;;;;;;;;;;4936509;29;20499;-69
2023/12/30 16:37:54;;;;;;;3.75;2.63;;;;;;;;;;4936298;29;20427;-68
2023/12/30 16:40:20;;;;;;;3.03;2.72;;;;;;;;;;4934766;29;20071;-68
2023/12/30 16:42:46;;;;;;;2.90;2.60;;;;;;;;;;4919082;29;20051;-67
2023/12/30 16:45:12;;;;;;;4.53;2.80;;;;;;;;;;4936188;29;20395;-68
2023/12/30 16:47:40;;;;;;;2.92;2.60;;;;;;;;;;4935707;29;20027;-71
2023/12/30 16:50:06;;;;;;;6.60;3.05;;;;;;;;;;4936079;29;20023;-67
2023/12/30 16:52:35;;;;;;;3.63;2.78;;;;;;;;;;4935719;29;20031;-68
2023/12/30 16:55:03;;;;;;;2.70;2.40;;;;;;;;;;4929762;29;20032;-68
2023/12/30 16:57:28;;;;;;;3.47;2.70;;;;;;;;;;4935739;29;20503;-68
2023/12/30 16:59:54;;;;;;;4.53;3.10;;;;;;;;;;4932619;29;20076;-68
2023/12/30 17:02:19;;;;;;;3.72;3.03;;;;;;;;;;4917026;29;20378;-67
2023/12/30 17:04:45;;;;;;;6.20;3.13;;;;;;;;;;4916812;29;20103;-68
2023/12/30 17:07:12;;;;;;;3.65;2.88;;;;;;;;;;4916939;29;20059;-67
2023/12/30 17:09:38;;;;;;;2.80;2.50;;;;;;;;;;4919465;29;20036;-68
2023/12/30 17:12:04;;;;;;;4.55;3.47;;;;;;;;;;4935978;29;20046;-68
2023/12/30 17:14:32;;;;;;;4.07;2.45;;;;;;;;;;4935638;29;20052;-68
2023/12/30 17:16:58;;;;;;;3.80;3.10;;;;;;;;;;4935675;29;20035;-69
2023/12/30 17:19:24;;;;;;;3.20;2.65;;;;;;;;;;4934361;29;20042;-69
2023/12/30 17:21:49;;;;;;;3.72;3.30;;;;;;;;;;4934252;29;20054;-68
2023/12/30 17:24:16;;;;;;;4.32;2.80;;;;;;;;;;4935497;29;20027;-69
2023/12/30 17:26:41;;;;;;;5.53;2.85;;;;;;;;;;4935362;29;20038;-69
2023/12/30 17:29:07;;;;;;;4.07;2.80;;;;;;;;;;4935218;29;20047;-69
2023/12/30 17:31:33;;;;;;;3.80;2.85;;;;;;;;;;4932838;29;20492;-68
2023/12/30 17:33:59;;;;;;;3.85;2.92;;;;;;;;;;4935465;29;20032;-68
2023/12/30 17:36:25;;;;;;;3.20;2.90;;;;;;;;;;4918135;29;20079;-68
2023/12/30 17:38:51;;;;;;;4.85;3.13;;;;;;;;;;4935289;29;20032;-68
2023/12/30 17:41:16;;;;;;;3.22;2.92;;;;;;;;;;4935303;29;20038;-69
2023/12/30 17:43:42;;;;;;;3.97;2.90;;;;;;;;;;4916106;29;20028;-68
2023/12/30 17:46:08;;;;;;;3.97;3.03;;;;;;;;;;4935185;29;20078;-68
2023/12/30 17:48:34;;;;;;;6.38;3.20;;;;;;;;;;4918204;29;20491;-68
2023/12/30 17:51:00;;;;;;;3.78;3.00;;;;;;;;;;4934200;29;20035;-69
2023/12/30 17:53:27;;;;;;;4.15;3.10;;;;;;;;;;4908073;29;20028;-68
2023/12/30 17:55:53;;;;;;;4.00;3.05;;;;;;;;;;4932488;29;20039;-69
2023/12/30 17:58:20;;;;;;;5.35;3.00;;;;;;;;;;4935033;29;20028;-69
2023/12/30 18:00:46;;;;;;;4.70;3.58;;;;;;;;;;4935281;29;20040;-69
2023/12/30 18:03:11;;;;;;;4.63;3.28;;;;;;;;;;4935365;29;20572;-68
2023/12/30 18:05:37;;;;;;;4.50;3.65;;;;;;;;;;4934861;29;20032;-68
2023/12/30 18:08:03;;;;;;;4.43;3.13;;;;;;;;;;4935343;29;20020;-68
2023/12/30 18:10:29;;;;;;;3.10;2.78;;;;;;;;;;4934906;29;20028;-68
2023/12/30 18:12:54;;;;;;;4.10;3.05;;;;;;;;;;4935014;29;20027;-69
2023/12/30 18:15:21;;;;;;;6.43;3.15;;;;;;;;;;4935174;29;20043;-69
2023/12/30 18:17:46;;;;;;;4.38;3.55;;;;;;;;;;4934744;29;20111;-69
2023/12/30 18:20:14;;;;;;;4.88;3.17;;;;;;;;;;4934809;29;20123;-67
2023/12/30 18:22:40;;;;;;;5.20;3.67;;;;;;;;;;4934884;29;20075;-68
2023/12/30 18:25:06;;;;;;;5.63;3.60;;;;;;;;;;4926132;29;20095;-68
2023/12/30 18:27:31;;;;;;;5.53;3.33;;;;;;;;;;4916135;29;20119;-68
2023/12/30 18:29:57;;;;;;;5.50;3.30;;;;;;;;;;4915719;29;20098;-69
2023/12/30 18:32:22;;;;;;;4.03;3.55;;;;;;;;;;4915834;29;20566;-68
2023/12/30 18:34:48;;;;;;;6.13;3.58;;;;;;;;;;4915801;29;20489;-68
2023/12/30 18:37:14;;;;;;;4.22;3.45;;;;;;;;;;4915795;29;20477;-69
2023/12/30 18:39:40;;;;;;;6.78;3.75;;;;;;;;;;4915513;29;20048;-68
2023/12/30 18:42:07;;;;;;;6.63;3.53;;;;;;;;;;4917524;29;20645;-69
2023/12/30 18:44:33;;;;;;;7.05;3.40;;;;;;;;;;4916399;29;20024;-70
2023/12/30 18:46:58;;;;;;;4.93;3.20;;;;;;;;;;4925071;29;20043;-73
2023/12/30 18:49:24;;;;;;;5.20;3.05;;;;;;;;;;4917625;29;20035;-68
2023/12/30 18:51:50;;;;;;;6.43;3.20;;;;;;;;;;4915494;29;20032;-69
2023/12/30 18:54:16;;;;;;;5.50;2.90;;;;;;;;;;4915992;29;20024;-69
2023/12/30 18:56:43;;;;;;;7.85;4.15;;;;;;;;;;4918510;29;20540;-70
2023/12/30 18:59:09;;;;;;;11.35;3.88;;;;;;;;;;4919160;29;20024;-69
2023/12/30 19:01:37;;;;;;;5.18;3.95;;;;;;;;;;4918653;29;20024;-71
2023/12/30 19:04:03;;;;;;;7.80;4.22;;;;;;;;;;4918859;29;20075;-69
2023/12/30 19:06:29;;;;;;;5.97;3.97;;;;;;;;;;4902447;29;20032;-67
2023/12/30 19:08:54;;;;;;;4.53;4.00;;;;;;;;;;4927735;29;20024;-68
2023/12/30 19:11:20;;;;;;;6.78;3.70;;;;;;;;;;4922020;29;20028;-69
2023/12/30 19:13:47;;;;;;;5.45;3.92;;;;;;;;;;4937903;29;20555;-69
2023/12/30 19:16:13;;;;;;;5.25;3.95;;;;;;;;;;4937547;29;20059;-68
2023/12/30 19:18:38;;;;;;;7.35;4.22;;;;;;;;;;4937832;29;20066;-69
2023/12/30 19:21:04;;;;;;;4.70;4.03;;;;;;;;;;4937511;29;20074;-69
2023/12/30 19:23:31;;;;;;;5.70;4.32;;;;;;;;;;4937437;29;20090;-70
2023/12/30 19:25:57;;;;;;;5.15;4.20;;;;;;;;;;4937739;29;20028;-70
2023/12/30 19:28:22;;;;;;;5.28;4.25;;;;;;;;;;4937435;29;20512;-69
2023/12/30 19:30:48;;;;;;;6.50;4.57;;;;;;;;;;4937314;29;20039;-69
2023/12/30 19:33:13;;;;;;;6.72;4.70;;;;;;;;;;4937546;29;20051;-68
2023/12/30 19:35:40;;;;;;;5.25;4.25;;;;;;;;;;4937193;29;20027;-70
2023/12/30 19:38:05;;;;;;;5.93;4.22;;;;;;;;;;4937112;29;20469;-69
2023/12/30 19:40:32;;;;;;;7.40;4.75;;;;;;;;;;4937188;29;20038;-70
2023/12/30 19:42:58;;;;;;;11.88;6.50;;;;;;;;;;4937433;29;20193;-70
2023/12/30 19:45:23;;;;;;;15.07;5.35;;;;;;;;;;4937331;29;20103;-69
2023/12/30 19:47:49;;;;;;;9.13;5.35;;;;;;;;;;4936942;29;20082;-68
2023/12/30 19:50:14;;;;;;;7.07;4.95;;;;;;;;;;4937019;29;20049;-71
2023/12/30 19:52:40;;;;;;;9.18;4.75;;;;;;;;;;4937000;29;20028;-70
2023/12/30 19:55:06;;;;;;;8.55;5.10;;;;;;;;;;4936940;29;20036;-70
2023/12/30 19:57:32;;;;;;;7.28;4.30;;;;;;;;;;4936816;29;20051;-69
2023/12/30 19:59:57;;;;;;;8.00;4.95;;;;;;;;;;4936851;29;20481;-68
2023/12/30 20:02:23;;;;;;;5.90;4.45;;;;;;;;;;4936761;29;20024;-73
2023/12/30 20:04:48;;;;;;;6.18;4.47;;;;;;;;;;4937187;29;20131;-69
2023/12/30 20:07:14;;;;;;;6.55;4.60;;;;;;;;;;4936038;29;20024;-69
2023/12/30 20:09:41;;;;;;;10.07;4.72;;;;;;;;;;4936540;29;20031;-69
2023/12/30 20:12:09;;;;;;;8.88;4.85;;;;;;;;;;4936760;29;20039;-70
2023/12/30 20:14:35;;;;;;;9.88;4.60;;;;;;;;;;4936778;29;20028;-68
2023/12/30 20:17:03;;;;;;;12.43;4.60;;;;;;;;;;4936529;29;20032;-70
2023/12/30 20:19:28;;;;;;;7.43;4.57;;;;;;;;;;4936412;29;20027;-69
2023/12/30 20:21:54;;;;;;;6.22;5.05;;;;;;;;;;4936552;29;20039;-69
2023/12/30 20:24:20;;;;;;;6.10;4.32;;;;;;;;;;4936582;29;20031;-68
2023/12/30 20:26:46;;;;;;;5.50;4.45;;;;;;;;;;4936323;29;20115;-68
2023/12/30 20:29:11;;;;;;;10.35;5.15;;;;;;;;;;4935815;29;20522;-68
2023/12/30 20:31:37;;;;;;;6.93;4.72;;;;;;;;;;4936163;29;20042;-69
2023/12/30 20:34:03;;;;;;;7.40;5.03;;;;;;;;;;4919161;29;20031;-69
2023/12/30 20:36:29;;;;;;;8.00;4.85;;;;;;;;;;4936227;29;20026;-68
2023/12/30 20:38:55;;;;;;;9.10;4.70;;;;;;;;;;4936099;29;20066;-69
2023/12/30 20:41:20;;;;;;;7.15;4.60;;;;;;;;;;4934061;29;20043;-68
2023/12/30 20:43:46;;;;;;;11.57;5.30;;;;;;;;;;4935942;29;20028;-69
2023/12/30 20:46:12;;;;;;;11.88;5.10;;;;;;;;;;4932126;29;20031;-73
2023/12/30 20:48:38;;;;;;;6.53;4.80;;;;;;;;;;4907811;29;20478;-74
2023/12/30 20:51:03;;;;;;;9.95;4.78;;;;;;;;;;4928378;29;20028;-68
2023/12/30 20:53:31;;;;;;;8.68;5.35;;;;;;;;;;4927442;29;20107;-71
2023/12/30 20:55:57;;;;;;;6.78;4.40;;;;;;;;;;4928182;29;20377;-69
2023/12/30 20:58:26;;;;;;;9.00;5.28;;;;;;;;;;4924881;29;20111;-74
2023/12/30 21:00:52;;;;;;;6.32;4.60;;;;;;;;;;4908678;29;20127;-68
2023/12/30 21:03:17;;;;;;;7.00;4.57;;;;;;;;;;4926704;29;20480;-69
2023/12/30 21:05:43;;;;;;;5.20;4.70;;;;;;;;;;4921774;29;20024;-68
2023/12/30 21:08:08;;;;;;;6.63;4.40;;;;;;;;;;4926293;29;20107;-73
2023/12/30 21:10:34;;;;;;;7.35;4.90;;;;;;;;;;4925405;29;20028;-69
2023/12/30 21:13:00;;;;;;;5.70;4.80;;;;;;;;;;4924896;29;20377;-68
2023/12/30 21:15:25;;;;;;;7.70;5.15;;;;;;;;;;4926859;29;20027;-68
2023/12/30 21:17:51;;;;;;;8.10;5.32;;;;;;;;;;4924447;29;20530;-69
2023/12/30 21:20:16;;;;;;;6.35;4.50;;;;;;;;;;4925792;29;20035;-68
2023/12/30 21:22:42;;;;;;;6.80;4.90;;;;;;;;;;4928288;29;20028;-75
2023/12/30 21:25:08;;;;;;;5.20;4.50;;;;;;;;;;4925088;29;20040;-69
2023/12/30 21:27:34;;;;;;;9.57;5.20;;;;;;;;;;4926246;29;20035;-69
2023/12/30 21:29:59;;;;;;;10.05;5.50;;;;;;;;;;4924197;29;20676;-68
2023/12/30 21:32:25;;;;;;;9.80;4.97;;;;;;;;;;4920474;29;20032;-68
2023/12/30 21:34:50;;;;;;;12.25;5.43;;;;;;;;;;4916253;29;20028;-70
2023/12/30 21:37:16;;;;;;;9.48;5.60;;;;;;;;;;4899434;29;20477;-69
2023/12/30 21:39:42;;;;;;;7.93;4.90;;;;;;;;;;4916463;29;20028;-73
2023/12/30 21:42:08;;;;;;;7.25;4.93;;;;;;;;;;4916341;29;20035;-68
2023/12/30 21:44:34;;;;;;;7.03;4.93;;;;;;;;;;4916034;29;20485;-70
2023/12/30 21:46:59;;;;;;;7.13;5.35;;;;;;;;;;4916261;29;20107;-70
2023/12/30 21:49:25;;;;;;;6.95;5.18;;;;;;;;;;4916188;29;20030;-68
2023/12/30 21:51:50;;;;;;;6.85;4.50;;;;;;;;;;4916163;29;20031;-68
2023/12/30 21:54:16;;;;;;;7.35;5.18;;;;;;;;;;4925123;29;20040;-69
2023/12/30 21:56:42;;;;;;;7.85;5.07;;;;;;;;;;4925050;29;20500;-67
2023/12/30 21:59:08;;;;;;;8.88;5.03;;;;;;;;;;4919777;29;20036;-67
2023/12/30 22:01:37;;;;;;;5.22;4.32;;;;;;;;;;4922071;29;20034;-68
2023/12/30 22:04:02;;;;;;;8.38;5.25;;;;;;;;;;4924607;29;20102;-67
2023/12/30 22:06:28;;;;;;;7.55;5.07;;;;;;;;;;4925982;29;20066;-68
2023/12/30 22:08:54;;;;;;;6.82;4.93;;;;;;;;;;4907450;29;20035;-67
2023/12/30 22:11:19;;;;;;;10.85;5.28;;;;;;;;;;4925255;29;20028;-67
2023/12/30 22:13:45;;;;;;;9.48;5.57;;;;;;;;;;4924111;29;20035;-68
2023/12/30 22:16:11;;;;;;;9.70;5.07;;;;;;;;;;4909412;29;20393;-67
2023/12/30 22:18:36;;;;;;;6.30;4.72;;;;;;;;;;4923807;29;20027;-67
2023/12/30 22:21:02;;;;;;;7.00;5.40;;;;;;;;;;4925281;29;20019;-67
2023/12/30 22:23:28;;;;;;;8.18;4.90;;;;;;;;;;4925196;29;20047;-68
2023/12/30 22:25:54;;;;;;;7.53;4.90;;;;;;;;;;4924229;29;20056;-67
2023/12/30 22:28:20;;;;;;;7.05;4.72;;;;;;;;;;4905850;29;20505;-67
2023/12/30 22:30:45;;;;;;;7.63;5.20;;;;;;;;;;4900497;29;20040;-67
2023/12/30 22:33:11;;;;;;;6.45;4.90;;;;;;;;;;4919583;29;20070;-68
2023/12/30 22:35:37;;;;;;;6.30;5.35;;;;;;;;;;4902618;29;20040;-67
2023/12/30 22:38:02;;;;;;;6.25;5.18;;;;;;;;;;4919505;29;20051;-67
2023/12/30 22:40:28;;;;;;;7.10;5.20;;;;;;;;;;4919280;29;20374;-68
2023/12/30 22:42:55;;;;;;;6.65;4.97;;;;;;;;;;4919858;29;20047;-67
2023/12/30 22:45:20;;;;;;;5.63;4.85;;;;;;;;;;4919238;29;20028;-68
2023/12/30 22:47:46;;;;;;;22.17;6.30;;;;;;;;;;4919346;29;20120;-68
2023/12/30 22:50:11;;;;;;;7.18;5.80;;;;;;;;;;4919289;29;20087;-68
2023/12/30 22:52:37;;;;;;;6.63;5.15;;;;;;;;;;4902621;29;20556;-69
2023/12/30 22:55:03;;;;;;;11.73;5.28;;;;;;;;;;4919278;29;20111;-68
2023/12/30 22:57:29;;;;;;;12.10;5.38;;;;;;;;;;4919158;29;20113;-68
2023/12/30 22:59:55;;;;;;;11.52;5.50;;;;;;;;;;4919012;29;20060;-69
2023/12/30 23:02:21;;;;;;;6.03;5.10;;;;;;;;;;4919598;29;20068;-68
2023/12/30 23:04:47;;;;;;;7.97;5.28;;;;;;;;;;4919257;29;20035;-68
2023/12/30 23:07:13;;;;;;;9.15;5.63;;;;;;;;;;4918977;29;20031;-68
2023/12/30 23:09:39;;;;;;;7.80;5.63;;;;;;;;;;4918884;29;20028;-68
2023/12/30 23:12:07;;;;;;;9.05;5.82;;;;;;;;;;4919063;29;20036;-69